Time;durP1;ratioP1;P1;durP2;ratioP2;P2;SDS_P1;SDS_P2;PMS_P1;PMS_P2;Temp;Humidity;BMP_temperature;BMP_pressure;BME280_temperature;BME280_humidity;BME280_pressure;Samples;Min_cycle;Max_cycle;Signal;HPM_P1;HPM_P2
2022/11/23 00:01:35;;;;;;;26.02;13.05;;;8.00;99.90;;;;;;5054352;28;20021;-76
2022/11/23 00:04:03;;;;;;;22.08;13.55;;;7.80;99.90;;;;;;5049927;28;20024;-74
2022/11/23 00:06:29;;;;;;;19.63;13.05;;;7.80;99.90;;;;;;5046527;28;20423;-74
2022/11/23 00:08:55;;;;;;;26.15;13.98;;;7.60;99.90;;;;;;5053371;28;20127;-74
2022/11/23 00:11:22;;;;;;;24.10;13.65;;;7.50;99.90;;;;;;5054929;28;20029;-74
2022/11/23 00:13:48;;;;;;;25.77;14.23;;;7.50;99.90;;;;;;5055742;28;20025;-73
2022/11/23 00:16:19;;;;;;;23.85;13.32;;;7.50;99.90;;;;;;5054690;28;20028;-74
2022/11/23 00:18:46;;;;;;;27.13;13.65;;;7.40;99.90;;;;;;5054999;28;20029;-75
2022/11/23 00:21:14;;;;;;;24.33;15.15;;;7.40;99.90;;;;;;5054421;28;20021;-75
2022/11/23 00:23:41;;;;;;;25.50;15.43;;;7.40;99.90;;;;;;5053619;28;20103;-74
2022/11/23 00:26:06;;;;;;;35.63;16.48;;;7.50;99.90;;;;;;5053981;28;20538;-75
2022/11/23 00:28:36;;;;;;;29.63;15.35;;;7.50;99.90;;;;;;5054455;28;20036;-75
2022/11/23 00:31:01;;;;;;;27.83;16.55;;;7.60;99.90;;;;;;5054171;28;20017;-74
2022/11/23 00:33:27;;;;;;;29.35;15.05;;;7.60;99.90;;;;;;5055218;28;20362;-74
2022/11/23 00:36:04;;;;;;;31.33;17.08;;;7.70;99.90;;;;;;5053390;28;20452;-74
2022/11/23 00:38:30;;;;;;;29.40;15.30;;;7.70;99.90;;;;;;5050553;28;20114;-75
2022/11/23 00:41:07;;;;;;;27.55;15.48;;;7.80;99.90;;;;;;5054070;28;20441;-75
2022/11/23 00:43:33;;;;;;;34.33;15.68;;;7.80;99.90;;;;;;5053714;28;20032;-74
2022/11/23 00:46:12;;;;;;;33.25;17.23;;;7.80;99.90;;;;;;5053796;28;20028;-74
2022/11/23 00:48:44;;;;;;;29.33;14.93;;;7.90;99.90;;;;;;5053565;28;20469;-75
2022/11/23 00:51:12;;;;;;;27.27;15.18;;;7.90;99.90;;;;;;5053223;28;20045;-74
2022/11/23 00:53:38;;;;;;;27.50;16.60;;;8.00;99.90;;;;;;5053965;28;20021;-75
2022/11/23 00:56:04;;;;;;;26.58;14.60;;;8.00;99.90;;;;;;5053487;28;20553;-74
2022/11/23 00:58:31;;;;;;;26.40;16.15;;;8.00;99.90;;;;;;5053201;28;20159;-75
2022/11/23 01:01:11;;;;;;;24.65;15.02;;;8.10;99.90;;;;;;5045931;28;20025;-73
2022/11/23 01:03:39;;;;;;;28.48;15.57;;;8.10;99.90;;;;;;5049963;28;20017;-74
2022/11/23 01:06:12;;;;;;;30.30;15.60;;;8.10;99.90;;;;;;5052743;28;20032;-75
2022/11/23 01:08:38;;;;;;;26.30;14.25;;;8.10;99.90;;;;;;5053909;28;20108;-75
2022/11/23 01:11:07;;;;;;;31.25;15.05;;;8.20;99.90;;;;;;5035331;28;20479;-74
2022/11/23 01:13:32;;;;;;;26.90;14.85;;;8.20;99.90;;;;;;5053451;28;20462;-74
2022/11/23 01:15:58;;;;;;;24.73;14.15;;;8.10;99.90;;;;;;5048228;28;20081;-75
2022/11/23 01:18:24;;;;;;;31.67;14.73;;;8.20;99.90;;;;;;5040331;28;20062;-75
2022/11/23 01:20:50;;;;;;;26.92;14.07;;;8.20;99.90;;;;;;5052969;28;20035;-76
2022/11/23 01:23:16;;;;;;;24.63;13.10;;;8.20;99.90;;;;;;5053308;28;20081;-75
2022/11/23 01:25:41;;;;;;;28.50;13.90;;;8.10;99.90;;;;;;5052849;28;20039;-73
2022/11/23 01:28:07;;;;;;;22.63;13.52;;;8.10;99.90;;;;;;5052520;28;20036;-75
2022/11/23 01:30:35;;;;;;;20.42;12.10;;;8.10;99.90;;;;;;5038998;28;20029;-74
2022/11/23 01:33:01;;;;;;;31.48;12.52;;;8.00;99.90;;;;;;5051947;28;20437;-74
2022/11/23 01:35:27;;;;;;;31.17;12.35;;;7.90;99.90;;;;;;5053023;28;20057;-75
2022/11/23 01:37:53;;;;;;;26.90;11.70;;;7.90;99.90;;;;;;5052792;28;20060;-75
2022/11/23 01:40:18;;;;;;;19.00;10.48;;;7.90;99.90;;;;;;5052197;28;20060;-75
2022/11/23 01:42:56;;;;;;;23.52;10.60;;;7.80;99.90;;;;;;5052991;28;20045;-74
2022/11/23 01:45:34;;;;;;;22.55;10.73;;;7.70;99.90;;;;;;5052979;28;20123;-73
2022/11/23 01:48:02;;;;;;;20.88;10.73;;;7.70;99.90;;;;;;5037685;28;20472;-74
2022/11/23 01:50:27;;;;;;;19.90;10.90;;;7.50;99.90;;;;;;5052655;28;20032;-75
2022/11/23 01:52:53;;;;;;;19.30;11.25;;;7.50;99.90;;;;;;5052519;28;20025;-74
2022/11/23 01:55:19;;;;;;;22.75;11.57;;;7.50;99.90;;;;;;5052280;28;20493;-75
2022/11/23 01:57:45;;;;;;;19.90;10.80;;;7.60;99.90;;;;;;5052844;28;20144;-73
2022/11/23 02:00:12;;;;;;;20.55;10.70;;;7.50;99.90;;;;;;5051795;28;20025;-73
2022/11/23 02:02:44;;;;;;;22.55;10.30;;;7.50;99.90;;;;;;5052475;28;20500;-74
2022/11/23 02:05:10;;;;;;;25.55;11.95;;;7.50;99.90;;;;;;5052492;28;20037;-75
2022/11/23 02:07:37;;;;;;;18.55;10.77;;;7.50;99.90;;;;;;5051619;28;20029;-74
2022/11/23 02:10:03;;;;;;;21.98;10.20;;;7.60;99.90;;;;;;5052070;28;20074;-74
2022/11/23 02:12:28;;;;;;;31.65;10.98;;;7.60;99.90;;;;;;5052603;28;20027;-74
2022/11/23 02:14:54;;;;;;;21.33;10.00;;;7.60;99.90;;;;;;5052701;28;20025;-74
2022/11/23 02:17:20;;;;;;;22.40;10.50;;;7.60;99.90;;;;;;5053122;28;20025;-74
2022/11/23 02:20:08;;;;;;;17.70;9.68;;;7.60;99.90;;;;;;5051988;28;20033;-74
2022/11/23 02:23:03;;;;;;;20.00;9.18;;;7.60;99.90;;;;;;5051881;28;20029;-74
2022/11/23 02:25:53;;;;;;;21.48;9.35;;;7.50;99.90;;;;;;5051820;28;20110;-75
2022/11/23 02:28:25;;;;;;;17.48;9.05;;;7.50;99.90;;;;;;5051815;28;20025;-75
2022/11/23 02:30:53;;;;;;;16.92;8.88;;;7.40;99.90;;;;;;5052057;28;20116;-75
2022/11/23 02:33:18;;;;;;;16.25;8.73;;;7.40;99.90;;;;;;5052492;28;20033;-75
2022/11/23 02:35:49;;;;;;;19.23;8.77;;;7.40;99.90;;;;;;5051573;28;20013;-75
2022/11/23 02:38:16;;;;;;;18.48;9.43;;;7.40;99.90;;;;;;5052368;28;20033;-75
2022/11/23 02:40:42;;;;;;;16.77;9.05;;;7.40;99.90;;;;;;5051938;28;20104;-74
2022/11/23 02:43:07;;;;;;;24.30;8.88;;;7.40;99.90;;;;;;5051392;28;20108;-76
2022/11/23 02:45:50;;;;;;;21.67;11.90;;;7.40;99.90;;;;;;5053106;28;20037;-75
2022/11/23 02:48:16;;;;;;;18.17;11.77;;;7.50;99.90;;;;;;5056376;28;20024;-75
2022/11/23 02:50:42;;;;;;;24.27;11.85;;;7.50;99.90;;;;;;5047891;28;20393;-75
2022/11/23 02:53:08;;;;;;;21.77;12.35;;;7.60;99.90;;;;;;5056477;28;20092;-75
2022/11/23 02:55:33;;;;;;;20.77;12.65;;;7.70;99.90;;;;;;5055875;28;20082;-74
2022/11/23 02:57:59;;;;;;;18.38;11.57;;;7.70;99.90;;;;;;5054933;28;20021;-74
2022/11/23 03:00:24;;;;;;;22.92;12.18;;;7.70;99.90;;;;;;5056477;28;20025;-75
2022/11/23 03:02:50;;;;;;;27.30;11.98;;;7.70;99.90;;;;;;5055394;28;20477;-75
2022/11/23 03:05:16;;;;;;;16.45;10.95;;;7.70;99.90;;;;;;5055331;28;20086;-74
2022/11/23 03:07:41;;;;;;;18.52;10.93;;;7.70;99.90;;;;;;5055836;28;20024;-74
2022/11/23 03:10:07;;;;;;;19.15;10.77;;;7.80;99.90;;;;;;5055415;28;20492;-74
2022/11/23 03:12:33;;;;;;;14.35;9.38;;;7.90;99.90;;;;;;5054565;28;20511;-74
2022/11/23 03:14:58;;;;;;;21.65;10.75;;;7.80;99.90;;;;;;5049618;28;20025;-74
2022/11/23 03:17:25;;;;;;;15.90;9.95;;;7.80;99.90;;;;;;5047545;28;20105;-74
2022/11/23 03:19:50;;;;;;;18.13;10.30;;;7.80;99.90;;;;;;5055335;28;20025;-75
2022/11/23 03:22:16;;;;;;;23.77;10.32;;;7.80;99.90;;;;;;5056091;28;20107;-73
2022/11/23 03:24:42;;;;;;;17.02;10.40;;;7.80;99.90;;;;;;5054738;28;20053;-74
2022/11/23 03:27:07;;;;;;;19.42;10.77;;;7.80;99.90;;;;;;5050213;28;20024;-75
2022/11/23 03:29:35;;;;;;;14.13;10.10;;;7.80;99.90;;;;;;5044114;28;20143;-74
2022/11/23 03:32:01;;;;;;;14.98;9.90;;;7.70;99.90;;;;;;5054462;28;20028;-74
2022/11/23 03:34:27;;;;;;;19.90;10.68;;;7.70;99.90;;;;;;5044659;28;20024;-74
2022/11/23 03:36:52;;;;;;;17.75;11.55;;;7.60;99.90;;;;;;5054978;28;20021;-74
2022/11/23 03:39:18;;;;;;;16.10;10.20;;;7.60;99.90;;;;;;5055092;28;20090;-75
2022/11/23 03:41:44;;;;;;;15.68;9.75;;;7.50;99.90;;;;;;5055181;28;20590;-75
2022/11/23 03:44:09;;;;;;;9.95;8.93;;;7.50;99.90;;;;;;5054583;28;20473;-75
2022/11/23 03:46:35;;;;;;;14.77;8.95;;;7.50;99.90;;;;;;5054460;28;20537;-75
2022/11/23 03:49:00;;;;;;;17.98;9.20;;;7.60;99.90;;;;;;5054491;28;20120;-74
2022/11/23 03:51:26;;;;;;;15.35;8.95;;;7.70;99.90;;;;;;5055675;28;20032;-74
2022/11/23 03:53:51;;;;;;;15.85;8.98;;;7.70;99.90;;;;;;5053945;28;20040;-75
2022/11/23 03:56:17;;;;;;;12.73;8.63;;;7.80;99.90;;;;;;5054819;28;20078;-74
2022/11/23 03:58:42;;;;;;;16.52;8.10;;;7.90;99.90;;;;;;5055116;28;20487;-75
2022/11/23 04:01:08;;;;;;;14.07;8.00;;;7.90;99.90;;;;;;5053663;28;20020;-74
2022/11/23 04:03:33;;;;;;;16.48;7.05;;;8.00;99.90;;;;;;5055392;28;20112;-74
2022/11/23 04:05:59;;;;;;;10.88;8.02;;;8.00;99.90;;;;;;5054565;28;20021;-74
2022/11/23 04:08:25;;;;;;;10.10;7.43;;;8.10;99.90;;;;;;5053858;28;20025;-74
2022/11/23 04:10:51;;;;;;;11.50;6.78;;;8.20;99.90;;;;;;5054463;28;20071;-74
2022/11/23 04:13:16;;;;;;;14.85;6.47;;;8.10;99.90;;;;;;5054863;28;20018;-74
2022/11/23 04:15:42;;;;;;;11.25;6.80;;;8.20;99.90;;;;;;5054358;28;20100;-74
2022/11/23 04:18:07;;;;;;;12.75;7.07;;;8.20;99.90;;;;;;5054290;28;20457;-74
2022/11/23 04:20:33;;;;;;;12.82;6.93;;;8.20;99.90;;;;;;5054811;28;20028;-74
2022/11/23 04:22:58;;;;;;;11.70;6.03;;;8.30;99.90;;;;;;5053686;28;20037;-74
2022/11/23 04:25:24;;;;;;;11.90;6.80;;;8.20;99.90;;;;;;5054095;28;20510;-75
2022/11/23 04:27:49;;;;;;;13.95;6.40;;;8.30;99.90;;;;;;5053656;28;20025;-74
2022/11/23 04:30:15;;;;;;;9.98;6.65;;;8.30;99.90;;;;;;5054062;28;20067;-74
2022/11/23 04:32:44;;;;;;;12.32;6.28;;;8.30;99.90;;;;;;5054507;28;20053;-74
2022/11/23 04:35:10;;;;;;;10.40;5.40;;;8.30;99.90;;;;;;5053263;28;20025;-75
2022/11/23 04:37:35;;;;;;;15.88;6.00;;;8.30;99.90;;;;;;5054328;28;20025;-76
2022/11/23 04:40:01;;;;;;;16.83;6.18;;;8.30;99.90;;;;;;5053074;28;20021;-74
2022/11/23 04:42:27;;;;;;;13.68;6.03;;;8.30;99.90;;;;;;5049060;28;20022;-77
2022/11/23 04:44:52;;;;;;;11.15;6.20;;;8.30;99.90;;;;;;5044397;28;20044;-75
2022/11/23 04:47:18;;;;;;;11.57;5.97;;;8.20;99.90;;;;;;5053738;28;20017;-75
2022/11/23 04:49:43;;;;;;;10.93;6.00;;;8.30;99.90;;;;;;5053364;28;20382;-76
2022/11/23 04:52:09;;;;;;;14.93;6.93;;;8.20;99.90;;;;;;5053696;28;20049;-76
2022/11/23 04:54:34;;;;;;;16.25;7.75;;;8.30;99.90;;;;;;5054637;28;20076;-75
2022/11/23 04:57:00;;;;;;;14.18;7.15;;;8.30;99.90;;;;;;5053384;28;20021;-75
2022/11/23 04:59:26;;;;;;;13.57;8.00;;;8.30;99.90;;;;;;5053508;28;20025;-76
2022/11/23 05:01:51;;;;;;;16.27;7.80;;;8.40;99.90;;;;;;5053834;28;20021;-76
2022/11/23 05:04:18;;;;;;;20.52;7.45;;;8.40;99.90;;;;;;5053539;28;20033;-75
2022/11/23 05:06:44;;;;;;;11.57;6.82;;;8.40;99.90;;;;;;5053801;28;20025;-76
2022/11/23 05:09:09;;;;;;;13.68;7.75;;;8.40;99.90;;;;;;5053114;28;20029;-75
2022/11/23 05:11:35;;;;;;;22.10;8.00;;;8.40;99.90;;;;;;5053396;28;20086;-75
2022/11/23 05:14:00;;;;;;;18.50;7.32;;;8.30;99.90;;;;;;5053630;28;20032;-76
2022/11/23 05:16:26;;;;;;;17.83;7.63;;;8.30;99.90;;;;;;5053600;28;20036;-75
2022/11/23 05:18:52;;;;;;;17.00;6.95;;;8.40;99.90;;;;;;5052853;28;20017;-76
2022/11/23 05:21:17;;;;;;;10.20;7.15;;;8.30;99.90;;;;;;5054513;28;20036;-76
2022/11/23 05:23:43;;;;;;;20.70;6.32;;;8.40;99.90;;;;;;5053345;28;20393;-76
2022/11/23 05:26:08;;;;;;;17.25;6.10;;;8.40;99.90;;;;;;5053195;28;20037;-76
2022/11/23 05:28:34;;;;;;;15.70;6.38;;;8.40;99.90;;;;;;5053585;28;20101;-76
2022/11/23 05:30:59;;;;;;;20.63;6.95;;;8.40;99.90;;;;;;5053265;28;20138;-76
2022/11/23 05:33:25;;;;;;;22.23;7.30;;;8.50;99.90;;;;;;5052697;28;20029;-76
2022/11/23 05:35:50;;;;;;;13.55;6.30;;;8.40;99.90;;;;;;5052823;28;20021;-75
2022/11/23 05:38:22;;;;;;;16.50;6.07;;;8.40;99.90;;;;;;5052788;28;20447;-76
2022/11/23 05:40:47;;;;;;;12.50;7.00;;;8.30;99.90;;;;;;5053397;28;20023;-75
2022/11/23 05:43:13;;;;;;;13.95;7.20;;;8.30;99.90;;;;;;5053141;28;20453;-76
2022/11/23 05:45:40;;;;;;;17.73;6.07;;;8.20;99.90;;;;;;5051409;28;20468;-76
2022/11/23 05:48:05;;;;;;;17.27;6.50;;;8.30;99.90;;;;;;5041828;28;20038;-76
2022/11/23 05:50:31;;;;;;;15.52;5.82;;;8.30;99.90;;;;;;5052804;28;20021;-76
2022/11/23 05:52:58;;;;;;;19.20;6.32;;;8.30;99.90;;;;;;5052827;28;20024;-76
2022/11/23 05:55:24;;;;;;;19.15;6.50;;;8.20;99.90;;;;;;5041056;28;20374;-75
2022/11/23 05:57:50;;;;;;;12.98;6.25;;;8.20;99.90;;;;;;5051499;28;20056;-76
2022/11/23 06:00:16;;;;;;;13.30;7.00;;;8.10;99.90;;;;;;5052644;28;20064;-76
2022/11/23 06:02:41;;;;;;;14.75;7.57;;;8.10;99.90;;;;;;5054286;28;20362;-76
2022/11/23 06:05:08;;;;;;;16.23;5.82;;;8.10;99.90;;;;;;5028943;28;20033;-76
2022/11/23 06:07:33;;;;;;;13.75;5.70;;;8.10;99.90;;;;;;5014310;28;20025;-75
2022/11/23 06:09:59;;;;;;;11.23;5.53;;;8.10;99.90;;;;;;5019352;28;20539;-75
2022/11/23 06:12:26;;;;;;;12.55;5.65;;;8.10;99.90;;;;;;5019505;28;20034;-75
2022/11/23 06:14:52;;;;;;;13.23;6.25;;;8.00;99.90;;;;;;5016792;28;20025;-77
2022/11/23 06:17:17;;;;;;;14.90;6.20;;;8.00;99.90;;;;;;5013847;28;20413;-76
2022/11/23 06:19:43;;;;;;;15.90;5.93;;;8.00;99.90;;;;;;5011376;28;20030;-76
2022/11/23 06:22:09;;;;;;;16.10;6.75;;;7.90;99.90;;;;;;5013976;28;20923;-75
2022/11/23 06:24:34;;;;;;;17.42;6.60;;;7.80;99.90;;;;;;5012096;28;20457;-75
2022/11/23 06:27:00;;;;;;;10.30;4.15;;;7.70;99.90;;;;;;5020524;28;20026;-77
2022/11/23 06:29:25;;;;;;;13.23;4.47;;;7.70;99.90;;;;;;5018968;28;20481;-76
2022/11/23 06:31:51;;;;;;;19.33;3.90;;;7.50;99.90;;;;;;5016032;28;20117;-77
2022/11/23 06:34:16;;;;;;;13.35;3.90;;;7.40;99.90;;;;;;5013554;28;20049;-76
2022/11/23 06:36:42;;;;;;;13.45;3.60;;;7.40;99.90;;;;;;5021566;28;20080;-76
2022/11/23 06:39:08;;;;;;;20.40;3.65;;;7.30;99.90;;;;;;5014509;28;20072;-77
2022/11/23 06:41:34;;;;;;;19.35;3.60;;;7.20;99.90;;;;;;5016554;28;20096;-76
2022/11/23 06:44:00;;;;;;;18.05;3.05;;;7.30;99.90;;;;;;5013801;28;20130;-75
2022/11/23 06:46:25;;;;;;;12.45;3.15;;;7.20;99.90;;;;;;5017951;28;20169;-78
2022/11/23 06:48:51;;;;;;;13.98;2.33;;;7.10;99.90;;;;;;5013996;28;20069;-74
2022/11/23 06:51:16;;;;;;;14.32;3.10;;;7.10;99.90;;;;;;5013626;28;20033;-76
2022/11/23 06:53:42;;;;;;;12.43;2.83;;;7.00;99.90;;;;;;5014277;28;20049;-76
2022/11/23 06:56:08;;;;;;;18.17;2.67;;;6.90;99.90;;;;;;5015322;28;20037;-76
2022/11/23 06:58:34;;;;;;;11.77;2.80;;;6.90;99.90;;;;;;5016982;28;20050;-76
2022/11/23 07:01:02;;;;;;;12.48;2.97;;;6.80;99.90;;;;;;5020270;28;20040;-77
2022/11/23 07:03:28;;;;;;;20.05;3.15;;;6.80;99.90;;;;;;5012376;28;20022;-76
2022/11/23 07:05:53;;;;;;;18.00;3.17;;;6.80;99.90;;;;;;5014052;28;20037;-76
2022/11/23 07:08:19;;;;;;;10.80;2.67;;;6.80;99.90;;;;;;5032248;28;20018;-76
2022/11/23 07:10:44;;;;;;;12.02;3.38;;;6.70;99.90;;;;;;5032093;28;20025;-76
2022/11/23 07:13:10;;;;;;;13.05;2.83;;;6.70;99.90;;;;;;5032873;28;20063;-75
2022/11/23 07:15:37;;;;;;;11.15;3.00;;;6.70;99.90;;;;;;5039910;28;20017;-76
2022/11/23 07:18:04;;;;;;;10.73;2.47;;;6.70;99.90;;;;;;5031087;28;20025;-76
2022/11/23 07:20:29;;;;;;;10.55;2.45;;;6.80;99.90;;;;;;5050652;28;20029;-76
2022/11/23 07:23:04;;;;;;;16.60;3.40;;;6.80;99.90;;;;;;5038848;28;20025;-76
2022/11/23 07:25:31;;;;;;;16.60;3.50;;;6.90;99.90;;;;;;5029820;28;20107;-75
2022/11/23 07:27:58;;;;;;;18.50;3.20;;;7.00;99.90;;;;;;5015232;28;20029;-75
2022/11/23 07:30:25;;;;;;;26.63;4.20;;;7.10;99.90;;;;;;5028816;28;20029;-77
2022/11/23 07:32:51;;;;;;;17.80;2.70;;;7.10;99.90;;;;;;5033863;28;20060;-75
2022/11/23 07:35:18;;;;;;;17.55;2.88;;;7.20;99.90;;;;;;5035896;28;20037;-75
2022/11/23 07:37:44;;;;;;;16.38;2.70;;;7.30;99.90;;;;;;5023681;28;20060;-74
2022/11/23 07:40:10;;;;;;;18.40;2.58;;;7.50;99.90;;;;;;5035707;28;20477;-76
2022/11/23 07:42:36;;;;;;;18.33;2.88;;;7.50;99.90;;;;;;5033032;28;20026;-75
2022/11/23 07:45:03;;;;;;;13.07;2.22;;;7.60;99.90;;;;;;5029207;28;20087;-76
2022/11/23 07:47:29;;;;;;;24.55;2.83;;;7.60;99.90;;;;;;5035081;28;20030;-76
2022/11/23 07:49:57;;;;;;;15.85;2.90;;;7.70;99.90;;;;;;5038454;28;20029;-75
2022/11/23 07:52:23;;;;;;;15.20;2.67;;;7.80;99.90;;;;;;5042132;28;20028;-76
2022/11/23 07:54:48;;;;;;;24.25;4.22;;;7.80;99.90;;;;;;5036006;28;20022;-75
2022/11/23 07:57:14;;;;;;;17.35;3.15;;;7.80;99.90;;;;;;5037025;28;20018;-76
2022/11/23 07:59:39;;;;;;;15.07;2.88;;;7.80;99.90;;;;;;5035507;28;20022;-76
2022/11/23 08:02:05;;;;;;;18.35;2.80;;;7.90;99.90;;;;;;5023367;28;20026;-75
2022/11/23 08:04:31;;;;;;;8.65;2.42;;;8.00;99.90;;;;;;5034175;28;20079;-76
2022/11/23 08:06:56;;;;;;;14.48;2.58;;;8.00;99.90;;;;;;5041243;28;20025;-76
2022/11/23 08:09:22;;;;;;;19.48;3.47;;;8.00;99.90;;;;;;5035262;28;20121;-75
2022/11/23 08:11:48;;;;;;;11.15;2.35;;;8.10;99.90;;;;;;5031980;28;20032;-76
2022/11/23 08:14:13;;;;;;;18.58;2.70;;;8.10;99.90;;;;;;5035034;28;20068;-76
2022/11/23 08:16:41;;;;;;;14.13;2.85;;;8.20;99.90;;;;;;5035604;28;20434;-75
2022/11/23 08:19:07;;;;;;;16.23;2.75;;;8.20;99.90;;;;;;5043652;28;20021;-75
2022/11/23 08:21:32;;;;;;;22.08;3.53;;;8.20;99.90;;;;;;5054987;28;20021;-76
2022/11/23 08:23:58;;;;;;;11.32;2.47;;;8.30;99.90;;;;;;5055815;28;20045;-76
2022/11/23 08:26:23;;;;;;;15.05;2.63;;;8.30;99.90;;;;;;5044298;28;20064;-76
2022/11/23 08:28:49;;;;;;;15.45;3.58;;;8.40;99.90;;;;;;5053803;28;20024;-76
2022/11/23 08:31:15;;;;;;;17.75;3.47;;;8.40;99.90;;;;;;5055339;28;20029;-76
2022/11/23 08:33:40;;;;;;;8.13;1.95;;;8.50;99.90;;;;;;5050684;28;20112;-76
2022/11/23 08:36:07;;;;;;;12.30;2.72;;;8.50;99.90;;;;;;5022312;28;20072;-74
2022/11/23 08:38:33;;;;;;;15.38;3.03;;;8.50;99.90;;;;;;5034251;28;20028;-76
2022/11/23 08:41:00;;;;;;;13.30;3.03;;;8.50;99.90;;;;;;5031164;28;20036;-75
2022/11/23 08:43:29;;;;;;;13.82;3.13;;;8.60;99.90;;;;;;5034494;28;20032;-75
2022/11/23 08:45:59;;;;;;;19.58;3.38;;;8.70;99.90;;;;;;5034316;28;20034;-76
2022/11/23 08:48:28;;;;;;;20.50;2.78;;;8.80;99.90;;;;;;5034060;28;20025;-75
2022/11/23 08:50:54;;;;;;;15.10;2.97;;;8.80;99.90;;;;;;5034705;28;20075;-75
2022/11/23 08:53:19;;;;;;;11.95;2.40;;;8.40;99.90;;;;;;5030169;28;20029;-76
2022/11/23 08:55:45;;;;;;;17.95;3.42;;;9.40;99.90;;;;;;5033042;28;20096;-75
2022/11/23 08:58:10;;;;;;;11.30;2.60;;;8.80;99.90;;;;;;5033873;28;20453;-76
2022/11/23 09:00:37;;;;;;;12.40;3.15;;;8.80;99.90;;;;;;5034333;28;20029;-76
2022/11/23 09:03:03;;;;;;;13.27;2.60;;;8.70;99.90;;;;;;5032995;28;20025;-76
2022/11/23 09:05:29;;;;;;;9.32;3.13;;;8.70;99.90;;;;;;5034049;28;20074;-76
2022/11/23 09:07:59;;;;;;;13.25;2.78;;;8.70;99.90;;;;;;5033789;28;20021;-76
2022/11/23 09:10:24;;;;;;;16.88;3.28;;;8.70;99.90;;;;;;5030424;28;20120;-76
2022/11/23 09:12:50;;;;;;;10.07;2.80;;;8.60;99.90;;;;;;5018910;28;20156;-74
2022/11/23 09:15:16;;;;;;;12.07;2.67;;;8.70;99.90;;;;;;5031426;28;20583;-76
2022/11/23 09:17:42;;;;;;;13.02;2.80;;;8.60;99.90;;;;;;5033390;28;20037;-75
2022/11/23 09:20:09;;;;;;;16.48;3.22;;;8.60;99.90;;;;;;5034087;28;20025;-76
2022/11/23 09:22:34;;;;;;;16.50;3.03;;;8.50;99.90;;;;;;5031137;28;20071;-76
2022/11/23 09:25:00;;;;;;;8.93;2.85;;;8.50;99.90;;;;;;5025810;28;20501;-75
2022/11/23 09:27:26;;;;;;;17.55;2.75;;;8.50;99.90;;;;;;5031142;28;20122;-76
2022/11/23 09:29:51;;;;;;;15.95;2.83;;;8.50;99.90;;;;;;5024824;28;20035;-76
2022/11/23 09:32:17;;;;;;;12.00;2.90;;;8.50;99.90;;;;;;5026399;28;20129;-76
2022/11/23 09:34:44;;;;;;;14.57;2.80;;;8.50;99.90;;;;;;5030642;28;20059;-77
2022/11/23 09:37:10;;;;;;;16.58;3.03;;;8.50;99.90;;;;;;5029660;28;20048;-76
2022/11/23 09:39:35;;;;;;;17.13;3.30;;;8.50;99.90;;;;;;5031046;28;20033;-71
2022/11/23 09:42:16;;;;;;;14.77;3.08;;;8.50;99.90;;;;;;5030425;28;20381;-76
2022/11/23 09:44:51;;;;;;;12.75;3.05;;;8.50;99.90;;;;;;5028926;28;20050;-77
2022/11/23 09:47:53;;;;;;;14.85;2.88;;;8.50;99.90;;;;;;5029837;28;20037;-76
2022/11/23 09:50:47;;;;;;;18.75;2.90;;;8.50;99.90;;;;;;5031008;28;20060;-77
2022/11/23 09:53:24;;;;;;;19.50;2.70;;;9.10;99.90;;;;;;5028823;28;20025;-76
2022/11/23 09:55:56;;;;;;;20.25;3.45;;;8.60;99.90;;;;;;5032247;28;20029;-76
2022/11/23 09:58:24;;;;;;;9.23;2.58;;;8.60;99.90;;;;;;5025484;28;20148;-76
2022/11/23 10:01:03;;;;;;;12.25;3.05;;;8.70;99.90;;;;;;5025245;28;20030;-76
2022/11/23 10:03:33;;;;;;;11.05;2.53;;;8.60;99.90;;;;;;5026822;28;20076;-77
2022/11/23 10:06:12;;;;;;;11.35;2.40;;;8.70;99.90;;;;;;5027501;28;20082;-76
2022/11/23 10:08:46;;;;;;;14.38;3.22;;;8.80;99.90;;;;;;5028386;28;20478;-76
2022/11/23 10:11:38;;;;;;;12.00;2.75;;;8.80;99.90;;;;;;5031112;28;20030;-76
2022/11/23 10:14:27;;;;;;;14.20;3.13;;;8.90;99.90;;;;;;5030444;28;20033;-78
2022/11/23 10:16:55;;;;;;;16.10;2.80;;;9.00;99.90;;;;;;5031628;28;20047;-77
2022/11/23 10:19:51;;;;;;;9.73;2.53;;;9.10;99.90;;;;;;5033424;28;20022;-77
2022/11/23 10:22:39;;;;;;;16.40;3.03;;;9.10;99.90;;;;;;5031042;28;20018;-77
2022/11/23 10:25:14;;;;;;;11.23;2.88;;;9.00;99.90;;;;;;5032117;28;20057;-76
2022/11/23 10:27:41;;;;;;;19.27;3.63;;;9.00;99.90;;;;;;5030200;28;20116;-77
2022/11/23 10:30:12;;;;;;;16.40;3.40;;;9.10;99.90;;;;;;5030734;28;20474;-77
2022/11/23 10:32:42;;;;;;;13.25;3.20;;;9.10;99.90;;;;;;5030069;28;20508;-77
2022/11/23 10:35:12;;;;;;;10.98;3.50;;;9.20;99.90;;;;;;5028183;28;20104;-76
2022/11/23 10:37:41;;;;;;;11.13;3.63;;;9.20;99.90;;;;;;5029669;28;20017;-74
2022/11/23 10:40:19;;;;;;;13.10;3.80;;;9.30;99.90;;;;;;5021510;28;20268;-77
2022/11/23 10:43:08;;;;;;;8.57;3.55;;;9.30;99.90;;;;;;5027311;28;20091;-75
2022/11/23 10:45:34;;;;;;;12.32;3.83;;;9.30;99.90;;;;;;5029205;28;20038;-75
2022/11/23 10:48:00;;;;;;;15.70;3.55;;;9.30;99.90;;;;;;5027175;28;20534;-75
2022/11/23 10:50:36;;;;;;;15.68;4.78;;;9.30;99.90;;;;;;5030537;28;20029;-76
2022/11/23 10:53:04;;;;;;;13.20;3.75;;;9.30;99.90;;;;;;5028805;28;20041;-75
2022/11/23 10:55:45;;;;;;;13.93;3.30;;;8.40;99.90;;;;;;5028372;28;20040;-77
2022/11/23 10:58:24;;;;;;;13.38;3.22;;;9.30;99.90;;;;;;5026169;28;20373;-76
2022/11/23 11:01:02;;;;;;;9.45;2.63;;;9.40;99.90;;;;;;5025882;28;20494;-77
2022/11/23 11:03:31;;;;;;;9.70;2.95;;;9.30;99.90;;;;;;5027603;28;20075;-76
2022/11/23 11:05:57;;;;;;;15.18;2.70;;;9.30;99.90;;;;;;5031099;28;20147;-75
2022/11/23 11:08:29;;;;;;;13.73;3.15;;;9.30;99.90;;;;;;5035154;28;20392;-76
2022/11/23 11:11:06;;;;;;;10.77;2.70;;;9.30;99.90;;;;;;5033619;28;20029;-74
2022/11/23 11:13:46;;;;;;;12.07;3.40;;;9.30;99.90;;;;;;5032609;28;20029;-77
2022/11/23 11:16:26;;;;;;;10.35;3.05;;;9.30;99.90;;;;;;5030876;28;20098;-76
2022/11/23 11:18:52;;;;;;;12.90;3.35;;;9.30;99.90;;;;;;5034143;28;20477;-77
2022/11/23 11:21:26;;;;;;;9.13;3.30;;;9.30;99.90;;;;;;5038390;28;20072;-76
2022/11/23 11:23:53;;;;;;;14.25;3.45;;;9.20;99.90;;;;;;5036237;28;20083;-75
2022/11/23 11:26:20;;;;;;;8.18;3.00;;;9.30;99.90;;;;;;5030456;28;20132;-77
2022/11/23 11:28:56;;;;;;;15.73;3.13;;;9.30;99.90;;;;;;5030088;28;20279;-76
2022/11/23 11:31:28;;;;;;;12.50;3.45;;;9.40;99.90;;;;;;5031218;28;20075;-76
2022/11/23 11:34:15;;;;;;;7.70;3.00;;;10.30;99.90;;;;;;5033065;28;20045;-76
2022/11/23 11:37:09;;;;;;;11.27;2.95;;;9.50;99.90;;;;;;5033505;28;20033;-77
2022/11/23 11:39:41;;;;;;;11.95;2.40;;;9.50;99.90;;;;;;5027721;28;20030;-77
2022/11/23 11:42:16;;;;;;;9.30;2.33;;;9.50;99.90;;;;;;5023824;28;20114;-77
2022/11/23 11:44:44;;;;;;;11.52;3.05;;;9.60;99.90;;;;;;5027539;28;20536;-75
2022/11/23 11:47:26;;;;;;;9.13;1.92;;;9.70;99.90;;;;;;5033547;28;20048;-78
2022/11/23 11:49:56;;;;;;;11.55;2.92;;;9.80;99.90;;;;;;5033812;28;20477;-78
2022/11/23 11:52:27;;;;;;;12.10;3.00;;;9.80;99.90;;;;;;5033963;28;20037;-77
2022/11/23 11:55:15;;;;;;;10.00;2.15;;;9.70;99.90;;;;;;5032979;28;20064;-76
2022/11/23 11:57:53;;;;;;;6.22;2.05;;;9.80;99.90;;;;;;5033293;28;20029;-77
2022/11/23 12:00:19;;;;;;;13.93;3.08;;;10.20;99.90;;;;;;5034246;28;20057;-77
2022/11/23 12:03:13;;;;;;;9.90;2.45;;;9.90;99.90;;;;;;5033258;28;21731;-78
2022/11/23 12:06:04;;;;;;;6.53;2.40;;;9.90;99.90;;;;;;5032291;28;20033;-77
2022/11/23 12:08:55;;;;;;;9.10;2.22;;;10.00;99.90;;;;;;5032779;28;20061;-77
2022/11/23 12:11:21;;;;;;;12.82;2.05;;;10.00;99.90;;;;;;5032545;28;20073;-75
2022/11/23 12:13:48;;;;;;;10.40;1.80;;;10.10;99.90;;;;;;5032794;28;20067;-77
2022/11/23 12:16:49;;;;;;;5.35;1.60;;;10.20;99.90;;;;;;5033095;28;20474;-71
2022/11/23 12:19:15;;;;;;;8.00;2.00;;;10.20;99.90;;;;;;5032526;28;20058;-76
2022/11/23 12:21:59;;;;;;;10.27;2.28;;;11.00;99.90;;;;;;5029184;28;20448;-76
2022/11/23 12:24:49;;;;;;;13.23;1.98;;;10.10;99.90;;;;;;5026794;28;20152;-76
2022/11/23 12:27:21;;;;;;;8.95;2.78;;;10.10;99.90;;;;;;5028703;28;20469;-76
2022/11/23 12:30:20;;;;;;;8.27;1.63;;;10.00;99.90;;;;;;5030576;28;20441;-76
2022/11/23 12:33:05;;;;;;;4.75;1.48;;;10.00;99.90;;;;;;5029855;28;20481;-77
2022/11/23 12:35:46;;;;;;;4.38;1.48;;;10.00;99.90;;;;;;5031295;28;20140;-79
2022/11/23 12:38:29;;;;;;;5.90;1.65;;;9.90;99.90;;;;;;5030485;28;20033;-78
2022/11/23 12:41:01;;;;;;;9.95;2.10;;;10.00;99.90;;;;;;5031353;28;20021;-77
2022/11/23 12:44:16;;;;;;;7.45;1.95;;;10.00;99.90;;;;;;5033389;28;20025;-77
2022/11/23 12:47:15;;;;;;;6.97;1.80;;;10.10;99.90;;;;;;5033827;28;20071;-78
2022/11/23 12:49:52;;;;;;;5.75;1.23;;;10.10;99.90;;;;;;5032118;28;20057;-77
2022/11/23 12:52:42;;;;;;;9.13;1.73;;;10.20;99.90;;;;;;5032110;28;20497;-77
2022/11/23 12:55:08;;;;;;;4.53;1.35;;;10.20;99.90;;;;;;5029233;28;20029;-76
2022/11/23 12:57:44;;;;;;;10.88;2.05;;;10.20;99.90;;;;;;5033701;28;20103;-77